sensor_id;sensor_type;location;lat;lon;timestamp;P1;durP1;ratioP1;P2;durP2;ratioP2
76443;SDS011;65282;51.362;10.082;2022-11-24T00:02:02;4.50;;;2.23;;
76443;SDS011;65282;51.362;10.082;2022-11-24T00:10:12;3.47;;;1.80;;
76443;SDS011;65282;51.362;10.082;2022-11-24T00:12:56;7.27;;;2.13;;
76443;SDS011;65282;51.362;10.082;2022-11-24T00:15:40;6.13;;;1.73;;
76443;SDS011;65282;51.362;10.082;2022-11-24T00:18:24;8.37;;;1.93;;
76443;SDS011;65282;51.362;10.082;2022-11-24T00:21:09;4.70;;;2.13;;
76443;SDS011;65282;51.362;10.082;2022-11-24T00:23:54;6.07;;;2.00;;
76443;SDS011;65282;51.362;10.082;2022-11-24T00:26:40;5.40;;;2.10;;
76443;SDS011;65282;51.362;10.082;2022-11-24T00:29:24;7.77;;;2.57;;
76443;SDS011;65282;51.362;10.082;2022-11-24T00:32:08;3.60;;;1.90;;
76443;SDS011;65282;51.362;10.082;2022-11-24T00:34:52;4.13;;;2.10;;
76443;SDS011;65282;51.362;10.082;2022-11-24T00:37:36;5.37;;;2.50;;
76443;SDS011;65282;51.362;10.082;2022-11-24T00:40:21;7.77;;;2.17;;
76443;SDS011;65282;51.362;10.082;2022-11-24T00:43:06;6.80;;;2.20;;
76443;SDS011;65282;51.362;10.082;2022-11-24T00:45:50;7.07;;;1.97;;
76443;SDS011;65282;51.362;10.082;2022-11-24T00:48:34;6.87;;;2.37;;
76443;SDS011;65282;51.362;10.082;2022-11-24T00:51:19;6.13;;;2.27;;
76443;SDS011;65282;51.362;10.082;2022-11-24T00:54:05;5.20;;;2.03;;
76443;SDS011;65282;51.362;10.082;2022-11-24T00:56:49;5.00;;;2.70;;
76443;SDS011;65282;51.362;10.082;2022-11-24T00:59:35;6.43;;;2.50;;
76443;SDS011;65282;51.362;10.082;2022-11-24T01:02:19;5.10;;;3.10;;
76443;SDS011;65282;51.362;10.082;2022-11-24T01:05:03;7.03;;;2.97;;
76443;SDS011;65282;51.362;10.082;2022-11-24T01:07:48;8.27;;;3.00;;
76443;SDS011;65282;51.362;10.082;2022-11-24T01:10:32;6.53;;;2.60;;
76443;SDS011;65282;51.362;10.082;2022-11-24T01:13:16;5.00;;;2.60;;
76443;SDS011;65282;51.362;10.082;2022-11-24T01:16:02;8.07;;;2.77;;
76443;SDS011;65282;51.362;10.082;2022-11-24T01:18:47;4.83;;;2.60;;
76443;SDS011;65282;51.362;10.082;2022-11-24T01:21:32;9.83;;;2.87;;
76443;SDS011;65282;51.362;10.082;2022-11-24T01:24:16;6.03;;;2.70;;
76443;SDS011;65282;51.362;10.082;2022-11-24T01:27:00;7.87;;;3.00;;
76443;SDS011;65282;51.362;10.082;2022-11-24T01:29:44;8.90;;;2.90;;
76443;SDS011;65282;51.362;10.082;2022-11-24T01:32:30;6.33;;;2.67;;
76443;SDS011;65282;51.362;10.082;2022-11-24T01:35:15;7.23;;;2.70;;
76443;SDS011;65282;51.362;10.082;2022-11-24T01:38:00;7.07;;;3.03;;
76443;SDS011;65282;51.362;10.082;2022-11-24T01:40:44;8.43;;;3.57;;
76443;SDS011;65282;51.362;10.082;2022-11-24T01:43:28;9.53;;;3.93;;
76443;SDS011;65282;51.362;10.082;2022-11-24T01:46:14;9.10;;;4.03;;
76443;SDS011;65282;51.362;10.082;2022-11-24T01:49:03;5.67;;;3.07;;
76443;SDS011;65282;51.362;10.082;2022-11-24T01:51:55;9.10;;;2.77;;
76443;SDS011;65282;51.362;10.082;2022-11-24T01:54:42;7.80;;;2.83;;
76443;SDS011;65282;51.362;10.082;2022-11-24T01:57:33;10.87;;;3.20;;
76443;SDS011;65282;51.362;10.082;2022-11-24T02:00:21;8.30;;;3.30;;
76443;SDS011;65282;51.362;10.082;2022-11-24T02:03:06;13.13;;;3.40;;
76443;SDS011;65282;51.362;10.082;2022-11-24T02:05:54;12.07;;;3.33;;
76443;SDS011;65282;51.362;10.082;2022-11-24T02:08:44;12.33;;;4.10;;
76443;SDS011;65282;51.362;10.082;2022-11-24T02:11:35;6.17;;;2.60;;
76443;SDS011;65282;51.362;10.082;2022-11-24T02:14:21;17.43;;;3.40;;
76443;SDS011;65282;51.362;10.082;2022-11-24T02:17:07;14.67;;;3.40;;
76443;SDS011;65282;51.362;10.082;2022-11-24T02:19:53;14.53;;;3.10;;
76443;SDS011;65282;51.362;10.082;2022-11-24T02:22:42;12.33;;;3.90;;
76443;SDS011;65282;51.362;10.082;2022-11-24T02:25:33;9.27;;;3.10;;
76443;SDS011;65282;51.362;10.082;2022-11-24T02:28:23;12.07;;;3.93;;
76443;SDS011;65282;51.362;10.082;2022-11-24T02:31:11;15.73;;;3.50;;
76443;SDS011;65282;51.362;10.082;2022-11-24T02:33:56;13.30;;;3.60;;
76443;SDS011;65282;51.362;10.082;2022-11-24T02:36:41;11.17;;;3.27;;
76443;SDS011;65282;51.362;10.082;2022-11-24T02:39:25;10.17;;;3.47;;
76443;SDS011;65282;51.362;10.082;2022-11-24T02:42:10;12.57;;;3.67;;
76443;SDS011;65282;51.362;10.082;2022-11-24T02:44:58;8.67;;;2.40;;
76443;SDS011;65282;51.362;10.082;2022-11-24T02:47:43;15.13;;;3.50;;
76443;SDS011;65282;51.362;10.082;2022-11-24T02:50:27;12.70;;;3.00;;
76443;SDS011;65282;51.362;10.082;2022-11-24T02:53:11;17.30;;;2.73;;
76443;SDS011;65282;51.362;10.082;2022-11-24T02:55:55;12.43;;;3.00;;
76443;SDS011;65282;51.362;10.082;2022-11-24T02:58:40;10.13;;;2.90;;
76443;SDS011;65282;51.362;10.082;2022-11-24T03:01:25;11.33;;;2.70;;
76443;SDS011;65282;51.362;10.082;2022-11-24T03:04:09;11.30;;;2.93;;
76443;SDS011;65282;51.362;10.082;2022-11-24T03:06:53;11.83;;;2.73;;
76443;SDS011;65282;51.362;10.082;2022-11-24T03:09:38;10.77;;;2.90;;
76443;SDS011;65282;51.362;10.082;2022-11-24T03:12:22;15.77;;;3.20;;
76443;SDS011;65282;51.362;10.082;2022-11-24T03:15:06;15.43;;;3.00;;
76443;SDS011;65282;51.362;10.082;2022-11-24T03:17:54;15.23;;;3.40;;
76443;SDS011;65282;51.362;10.082;2022-11-24T03:20:39;17.50;;;4.53;;
76443;SDS011;65282;51.362;10.082;2022-11-24T03:23:23;15.10;;;3.63;;
76443;SDS011;65282;51.362;10.082;2022-11-24T03:26:07;32.80;;;5.53;;
76443;SDS011;65282;51.362;10.082;2022-11-24T03:28:53;22.60;;;5.70;;
76443;SDS011;65282;51.362;10.082;2022-11-24T03:31:38;12.60;;;3.53;;
76443;SDS011;65282;51.362;10.082;2022-11-24T03:34:24;21.77;;;5.17;;
76443;SDS011;65282;51.362;10.082;2022-11-24T03:37:08;15.40;;;3.27;;
76443;SDS011;65282;51.362;10.082;2022-11-24T03:39:52;13.70;;;2.90;;
76443;SDS011;65282;51.362;10.082;2022-11-24T03:42:36;10.87;;;2.93;;
76443;SDS011;65282;51.362;10.082;2022-11-24T03:45:20;11.77;;;2.93;;
76443;SDS011;65282;51.362;10.082;2022-11-24T03:48:04;8.50;;;2.40;;
76443;SDS011;65282;51.362;10.082;2022-11-24T03:50:54;24.60;;;4.90;;
76443;SDS011;65282;51.362;10.082;2022-11-24T03:53:40;38.53;;;9.50;;
76443;SDS011;65282;51.362;10.082;2022-11-24T03:56:24;26.03;;;5.37;;
76443;SDS011;65282;51.362;10.082;2022-11-24T03:59:08;18.53;;;5.43;;
76443;SDS011;65282;51.362;10.082;2022-11-24T04:01:52;16.30;;;3.10;;
76443;SDS011;65282;51.362;10.082;2022-11-24T04:04:37;13.13;;;2.90;;
76443;SDS011;65282;51.362;10.082;2022-11-24T04:07:22;10.73;;;3.07;;
76443;SDS011;65282;51.362;10.082;2022-11-24T04:10:07;12.63;;;3.47;;
76443;SDS011;65282;51.362;10.082;2022-11-24T04:12:52;19.83;;;3.47;;
76443;SDS011;65282;51.362;10.082;2022-11-24T04:15:36;13.90;;;3.60;;
76443;SDS011;65282;51.362;10.082;2022-11-24T04:18:22;12.83;;;2.70;;
76443;SDS011;65282;51.362;10.082;2022-11-24T04:21:06;11.40;;;3.10;;
76443;SDS011;65282;51.362;10.082;2022-11-24T04:23:51;14.67;;;3.53;;
76443;SDS011;65282;51.362;10.082;2022-11-24T04:26:36;19.37;;;3.73;;
76443;SDS011;65282;51.362;10.082;2022-11-24T04:29:20;11.40;;;2.27;;
76443;SDS011;65282;51.362;10.082;2022-11-24T04:32:04;11.23;;;2.57;;
76443;SDS011;65282;51.362;10.082;2022-11-24T04:34:48;13.77;;;2.87;;
76443;SDS011;65282;51.362;10.082;2022-11-24T04:37:32;10.87;;;2.47;;
76443;SDS011;65282;51.362;10.082;2022-11-24T04:40:18;12.67;;;2.50;;
76443;SDS011;65282;51.362;10.082;2022-11-24T04:43:03;9.83;;;2.03;;
76443;SDS011;65282;51.362;10.082;2022-11-24T04:45:47;12.33;;;2.83;;
76443;SDS011;65282;51.362;10.082;2022-11-24T04:48:31;14.67;;;2.57;;
76443;SDS011;65282;51.362;10.082;2022-11-24T04:51:15;10.53;;;2.50;;
76443;SDS011;65282;51.362;10.082;2022-11-24T04:54:00;16.50;;;3.57;;
76443;SDS011;65282;51.362;10.082;2022-11-24T04:56:48;18.20;;;3.07;;
76443;SDS011;65282;51.362;10.082;2022-11-24T04:59:33;13.90;;;2.83;;
76443;SDS011;65282;51.362;10.082;2022-11-24T05:02:17;15.57;;;2.90;;
76443;SDS011;65282;51.362;10.082;2022-11-24T05:05:02;17.03;;;2.73;;
76443;SDS011;65282;51.362;10.082;2022-11-24T05:07:47;19.13;;;3.63;;
76443;SDS011;65282;51.362;10.082;2022-11-24T05:10:32;18.73;;;3.07;;
76443;SDS011;65282;51.362;10.082;2022-11-24T05:13:19;16.63;;;2.67;;
76443;SDS011;65282;51.362;10.082;2022-11-24T05:16:03;11.60;;;2.77;;
76443;SDS011;65282;51.362;10.082;2022-11-24T05:18:47;11.23;;;3.10;;
76443;SDS011;65282;51.362;10.082;2022-11-24T05:21:31;8.83;;;2.70;;
76443;SDS011;65282;51.362;10.082;2022-11-24T05:24:15;16.43;;;3.13;;
76443;SDS011;65282;51.362;10.082;2022-11-24T05:26:59;13.77;;;3.20;;
76443;SDS011;65282;51.362;10.082;2022-11-24T05:29:45;9.67;;;3.03;;
76443;SDS011;65282;51.362;10.082;2022-11-24T05:32:29;17.30;;;2.77;;
76443;SDS011;65282;51.362;10.082;2022-11-24T05:35:14;13.53;;;2.63;;
76443;SDS011;65282;51.362;10.082;2022-11-24T05:37:58;17.17;;;2.93;;
76443;SDS011;65282;51.362;10.082;2022-11-24T05:40:42;11.03;;;2.93;;
76443;SDS011;65282;51.362;10.082;2022-11-24T05:43:27;15.83;;;3.17;;
76443;SDS011;65282;51.362;10.082;2022-11-24T05:46:13;17.93;;;4.17;;
76443;SDS011;65282;51.362;10.082;2022-11-24T05:49:04;15.13;;;3.63;;
76443;SDS011;65282;51.362;10.082;2022-11-24T05:51:48;11.97;;;3.37;;
76443;SDS011;65282;51.362;10.082;2022-11-24T05:54:32;17.77;;;3.13;;
76443;SDS011;65282;51.362;10.082;2022-11-24T05:57:16;14.10;;;2.83;;
76443;SDS011;65282;51.362;10.082;2022-11-24T06:00:01;16.47;;;3.30;;
76443;SDS011;65282;51.362;10.082;2022-11-24T06:02:57;15.23;;;3.27;;
76443;SDS011;65282;51.362;10.082;2022-11-24T06:05:44;13.37;;;3.00;;
76443;SDS011;65282;51.362;10.082;2022-11-24T06:08:30;14.33;;;3.03;;
76443;SDS011;65282;51.362;10.082;2022-11-24T06:11:14;18.87;;;3.37;;
76443;SDS011;65282;51.362;10.082;2022-11-24T06:13:58;14.97;;;2.60;;
76443;SDS011;65282;51.362;10.082;2022-11-24T06:16:42;14.80;;;3.40;;
76443;SDS011;65282;51.362;10.082;2022-11-24T06:19:28;12.27;;;2.70;;
76443;SDS011;65282;51.362;10.082;2022-11-24T06:22:12;10.80;;;2.80;;
76443;SDS011;65282;51.362;10.082;2022-11-24T06:24:56;20.37;;;2.73;;
76443;SDS011;65282;51.362;10.082;2022-11-24T06:27:41;17.27;;;3.23;;
76443;SDS011;65282;51.362;10.082;2022-11-24T06:30:25;10.27;;;2.60;;
76443;SDS011;65282;51.362;10.082;2022-11-24T06:33:10;19.93;;;3.57;;
76443;SDS011;65282;51.362;10.082;2022-11-24T06:35:58;19.30;;;3.53;;
76443;SDS011;65282;51.362;10.082;2022-11-24T06:38:43;22.23;;;3.30;;
76443;SDS011;65282;51.362;10.082;2022-11-24T06:41:27;20.87;;;3.60;;
76443;SDS011;65282;51.362;10.082;2022-11-24T06:44:11;14.10;;;2.77;;
76443;SDS011;65282;51.362;10.082;2022-11-24T06:46:55;17.87;;;3.33;;
76443;SDS011;65282;51.362;10.082;2022-11-24T06:49:43;19.77;;;2.97;;
76443;SDS011;65282;51.362;10.082;2022-11-24T06:52:34;9.97;;;3.07;;
76443;SDS011;65282;51.362;10.082;2022-11-24T06:55:22;18.57;;;3.30;;
76443;SDS011;65282;51.362;10.082;2022-11-24T06:58:06;19.57;;;3.37;;
76443;SDS011;65282;51.362;10.082;2022-11-24T07:00:50;17.33;;;2.87;;
76443;SDS011;65282;51.362;10.082;2022-11-24T07:03:34;13.47;;;3.20;;
76443;SDS011;65282;51.362;10.082;2022-11-24T07:06:18;10.87;;;2.60;;
76443;SDS011;65282;51.362;10.082;2022-11-24T07:09:05;15.67;;;2.73;;
76443;SDS011;65282;51.362;10.082;2022-11-24T07:11:50;19.70;;;3.17;;
76443;SDS011;65282;51.362;10.082;2022-11-24T07:14:34;22.03;;;3.67;;
76443;SDS011;65282;51.362;10.082;2022-11-24T07:17:18;20.93;;;3.30;;
76443;SDS011;65282;51.362;10.082;2022-11-24T07:20:03;16.70;;;3.23;;
76443;SDS011;65282;51.362;10.082;2022-11-24T07:22:48;17.40;;;2.83;;
76443;SDS011;65282;51.362;10.082;2022-11-24T07:25:33;14.97;;;2.90;;
76443;SDS011;65282;51.362;10.082;2022-11-24T07:28:18;14.37;;;2.83;;
76443;SDS011;65282;51.362;10.082;2022-11-24T07:31:03;16.13;;;2.80;;
76443;SDS011;65282;51.362;10.082;2022-11-24T07:33:49;29.10;;;5.20;;
76443;SDS011;65282;51.362;10.082;2022-11-24T07:36:34;42.67;;;8.10;;
76443;SDS011;65282;51.362;10.082;2022-11-24T07:39:18;25.30;;;4.20;;
76443;SDS011;65282;51.362;10.082;2022-11-24T07:42:04;15.23;;;3.03;;
76443;SDS011;65282;51.362;10.082;2022-11-24T07:44:48;12.10;;;3.00;;
76443;SDS011;65282;51.362;10.082;2022-11-24T07:47:32;23.97;;;3.40;;
76443;SDS011;65282;51.362;10.082;2022-11-24T07:50:21;18.50;;;3.20;;
76443;SDS011;65282;51.362;10.082;2022-11-24T07:53:06;13.93;;;2.33;;
76443;SDS011;65282;51.362;10.082;2022-11-24T07:55:53;25.20;;;4.00;;
76443;SDS011;65282;51.362;10.082;2022-11-24T07:58:39;18.53;;;2.67;;
76443;SDS011;65282;51.362;10.082;2022-11-24T08:01:24;16.60;;;3.10;;
76443;SDS011;65282;51.362;10.082;2022-11-24T08:04:08;12.60;;;3.03;;
76443;SDS011;65282;51.362;10.082;2022-11-24T08:06:52;26.37;;;3.50;;
76443;SDS011;65282;51.362;10.082;2022-11-24T08:09:36;16.97;;;2.93;;
76443;SDS011;65282;51.362;10.082;2022-11-24T08:12:20;14.77;;;3.23;;
76443;SDS011;65282;51.362;10.082;2022-11-24T08:15:07;15.33;;;2.50;;
76443;SDS011;65282;51.362;10.082;2022-11-24T08:17:52;22.73;;;5.80;;
76443;SDS011;65282;51.362;10.082;2022-11-24T08:20:36;14.17;;;2.77;;
76443;SDS011;65282;51.362;10.082;2022-11-24T08:23:21;14.50;;;2.47;;
76443;SDS011;65282;51.362;10.082;2022-11-24T08:26:05;17.77;;;2.70;;
76443;SDS011;65282;51.362;10.082;2022-11-24T08:28:54;8.77;;;2.43;;
76443;SDS011;65282;51.362;10.082;2022-11-24T08:31:41;12.47;;;2.20;;
76443;SDS011;65282;51.362;10.082;2022-11-24T08:34:25;16.60;;;2.57;;
76443;SDS011;65282;51.362;10.082;2022-11-24T08:37:09;10.63;;;2.23;;
76443;SDS011;65282;51.362;10.082;2022-11-24T08:39:53;20.23;;;3.67;;
76443;SDS011;65282;51.362;10.082;2022-11-24T08:42:37;9.67;;;2.33;;
76443;SDS011;65282;51.362;10.082;2022-11-24T08:45:21;18.80;;;2.47;;
76443;SDS011;65282;51.362;10.082;2022-11-24T08:48:07;18.80;;;2.47;;
76443;SDS011;65282;51.362;10.082;2022-11-24T08:50:51;10.17;;;1.87;;
76443;SDS011;65282;51.362;10.082;2022-11-24T08:53:35;12.50;;;2.97;;
76443;SDS011;65282;51.362;10.082;2022-11-24T08:56:20;19.40;;;3.00;;
76443;SDS011;65282;51.362;10.082;2022-11-24T08:59:05;13.70;;;2.73;;
76443;SDS011;65282;51.362;10.082;2022-11-24T09:01:50;12.50;;;2.03;;
76443;SDS011;65282;51.362;10.082;2022-11-24T09:04:36;17.20;;;2.70;;
76443;SDS011;65282;51.362;10.082;2022-11-24T09:07:20;24.67;;;2.80;;
76443;SDS011;65282;51.362;10.082;2022-11-24T09:10:04;15.77;;;2.77;;
76443;SDS011;65282;51.362;10.082;2022-11-24T09:12:50;15.47;;;1.93;;
76443;SDS011;65282;51.362;10.082;2022-11-24T09:15:34;25.47;;;2.70;;
76443;SDS011;65282;51.362;10.082;2022-11-24T09:18:18;14.90;;;2.80;;
76443;SDS011;65282;51.362;10.082;2022-11-24T09:21:07;16.87;;;2.63;;
76443;SDS011;65282;51.362;10.082;2022-11-24T09:23:52;23.73;;;4.67;;
76443;SDS011;65282;51.362;10.082;2022-11-24T09:26:38;11.43;;;1.97;;
76443;SDS011;65282;51.362;10.082;2022-11-24T09:29:22;13.83;;;2.83;;
76443;SDS011;65282;51.362;10.082;2022-11-24T09:32:07;14.37;;;2.27;;
76443;SDS011;65282;51.362;10.082;2022-11-24T09:34:51;16.63;;;2.30;;
76443;SDS011;65282;51.362;10.082;2022-11-24T09:37:36;24.93;;;4.07;;
76443;SDS011;65282;51.362;10.082;2022-11-24T09:40:21;19.90;;;2.60;;
76443;SDS011;65282;51.362;10.082;2022-11-24T09:43:06;22.67;;;2.90;;
76443;SDS011;65282;51.362;10.082;2022-11-24T09:46:00;14.90;;;2.50;;
76443;SDS011;65282;51.362;10.082;2022-11-24T09:48:52;16.07;;;2.50;;
76443;SDS011;65282;51.362;10.082;2022-11-24T09:51:39;20.60;;;2.97;;
76443;SDS011;65282;51.362;10.082;2022-11-24T09:54:28;15.13;;;2.63;;
76443;SDS011;65282;51.362;10.082;2022-11-24T09:57:13;16.43;;;2.40;;
76443;SDS011;65282;51.362;10.082;2022-11-24T10:00:00;13.70;;;2.20;;
76443;SDS011;65282;51.362;10.082;2022-11-24T10:02:56;12.30;;;2.30;;
76443;SDS011;65282;51.362;10.082;2022-11-24T10:05:40;17.33;;;2.50;;
76443;SDS011;65282;51.362;10.082;2022-11-24T10:08:28;16.67;;;2.37;;
76443;SDS011;65282;51.362;10.082;2022-11-24T10:11:30;13.77;;;2.57;;
76443;SDS011;65282;51.362;10.082;2022-11-24T10:14:23;19.63;;;3.00;;
76443;SDS011;65282;51.362;10.082;2022-11-24T10:17:35;14.43;;;2.40;;
76443;SDS011;65282;51.362;10.082;2022-11-24T10:20:27;11.97;;;2.53;;
76443;SDS011;65282;51.362;10.082;2022-11-24T10:23:23;7.70;;;2.07;;
76443;SDS011;65282;51.362;10.082;2022-11-24T10:26:17;12.40;;;2.43;;
76443;SDS011;65282;51.362;10.082;2022-11-24T10:29:09;12.83;;;2.07;;
76443;SDS011;65282;51.362;10.082;2022-11-24T10:32:04;9.67;;;2.03;;
76443;SDS011;65282;51.362;10.082;2022-11-24T10:34:58;9.80;;;2.63;;
76443;SDS011;65282;51.362;10.082;2022-11-24T10:37:57;11.80;;;2.30;;
76443;SDS011;65282;51.362;10.082;2022-11-24T10:40:49;5.00;;;1.37;;
76443;SDS011;65282;51.362;10.082;2022-11-24T10:43:37;5.77;;;1.50;;
76443;SDS011;65282;51.362;10.082;2022-11-24T10:46:26;13.57;;;2.47;;
76443;SDS011;65282;51.362;10.082;2022-11-24T10:49:13;9.37;;;2.10;;
76443;SDS011;65282;51.362;10.082;2022-11-24T10:52:03;11.83;;;2.10;;
76443;SDS011;65282;51.362;10.082;2022-11-24T10:55:20;17.53;;;2.87;;
76443;SDS011;65282;51.362;10.082;2022-11-24T10:58:13;8.30;;;1.80;;
76443;SDS011;65282;51.362;10.082;2022-11-24T11:00:59;8.17;;;2.00;;
76443;SDS011;65282;51.362;10.082;2022-11-24T11:04:02;10.67;;;2.17;;
76443;SDS011;65282;51.362;10.082;2022-11-24T11:07:14;8.30;;;1.83;;
76443;SDS011;65282;51.362;10.082;2022-11-24T11:10:16;16.60;;;2.57;;
76443;SDS011;65282;51.362;10.082;2022-11-24T11:16:12;15.20;;;2.30;;
76443;SDS011;65282;51.362;10.082;2022-11-24T11:22:18;9.73;;;1.93;;
76443;SDS011;65282;51.362;10.082;2022-11-24T11:25:16;11.90;;;2.80;;
76443;SDS011;65282;51.362;10.082;2022-11-24T11:28:09;13.13;;;2.27;;
76443;SDS011;65282;51.362;10.082;2022-11-24T11:31:16;16.67;;;3.07;;
76443;SDS011;65282;51.362;10.082;2022-11-24T11:34:13;14.70;;;4.10;;
76443;SDS011;65282;51.362;10.082;2022-11-24T11:37:02;14.87;;;2.53;;
76443;SDS011;65282;51.362;10.082;2022-11-24T11:39:48;14.80;;;2.53;;
76443;SDS011;65282;51.362;10.082;2022-11-24T11:42:35;13.13;;;2.13;;
76443;SDS011;65282;51.362;10.082;2022-11-24T11:45:27;9.87;;;2.20;;
76443;SDS011;65282;51.362;10.082;2022-11-24T11:48:20;11.37;;;2.43;;
76443;SDS011;65282;51.362;10.082;2022-11-24T11:51:14;9.10;;;2.67;;
76443;SDS011;65282;51.362;10.082;2022-11-24T11:54:12;7.53;;;1.70;;
76443;SDS011;65282;51.362;10.082;2022-11-24T11:57:06;6.27;;;1.63;;
76443;SDS011;65282;51.362;10.082;2022-11-24T12:00:10;5.70;;;2.10;;
76443;SDS011;65282;51.362;10.082;2022-11-24T12:03:13;9.33;;;1.43;;
76443;SDS011;65282;51.362;10.082;2022-11-24T12:06:13;6.23;;;1.90;;
76443;SDS011;65282;51.362;10.082;2022-11-24T12:09:14;9.60;;;1.70;;
76443;SDS011;65282;51.362;10.082;2022-11-24T12:12:16;9.63;;;1.33;;
76443;SDS011;65282;51.362;10.082;2022-11-24T12:15:18;5.00;;;1.27;;
76443;SDS011;65282;51.362;10.082;2022-11-24T12:18:13;8.57;;;1.30;;
76443;SDS011;65282;51.362;10.082;2022-11-24T12:21:09;4.87;;;1.43;;
76443;SDS011;65282;51.362;10.082;2022-11-24T12:24:00;5.10;;;1.30;;
76443;SDS011;65282;51.362;10.082;2022-11-24T12:26:53;4.77;;;1.33;;
76443;SDS011;65282;51.362;10.082;2022-11-24T12:29:49;2.67;;;1.13;;
76443;SDS011;65282;51.362;10.082;2022-11-24T12:35:55;4.17;;;1.20;;
76443;SDS011;65282;51.362;10.082;2022-11-24T12:38:46;5.17;;;1.20;;
76443;SDS011;65282;51.362;10.082;2022-11-24T12:41:44;7.80;;;1.67;;
76443;SDS011;65282;51.362;10.082;2022-11-24T12:44:55;6.33;;;1.77;;
76443;SDS011;65282;51.362;10.082;2022-11-24T12:47:57;5.40;;;1.30;;
76443;SDS011;65282;51.362;10.082;2022-11-24T12:50:50;8.97;;;1.53;;
76443;SDS011;65282;51.362;10.082;2022-11-24T12:53:36;8.03;;;1.30;;
76443;SDS011;65282;51.362;10.082;2022-11-24T12:56:22;6.77;;;1.30;;
76443;SDS011;65282;51.362;10.082;2022-11-24T12:59:16;4.77;;;1.30;;
76443;SDS011;65282;51.362;10.082;2022-11-24T13:02:12;9.83;;;1.40;;
76443;SDS011;65282;51.362;10.082;2022-11-24T13:05:10;6.20;;;1.63;;
76443;SDS011;65282;51.362;10.082;2022-11-24T13:08:02;7.00;;;1.50;;
76443;SDS011;65282;51.362;10.082;2022-11-24T13:10:47;5.70;;;1.33;;
76443;SDS011;65282;51.362;10.082;2022-11-24T13:13:53;6.33;;;1.00;;
76443;SDS011;65282;51.362;10.082;2022-11-24T13:16:52;3.87;;;1.63;;
76443;SDS011;65282;51.362;10.082;2022-11-24T13:19:40;5.47;;;1.47;;
76443;SDS011;65282;51.362;10.082;2022-11-24T13:22:25;5.50;;;1.60;;
76443;SDS011;65282;51.362;10.082;2022-11-24T13:25:11;5.23;;;1.27;;
76443;SDS011;65282;51.362;10.082;2022-11-24T13:27:58;6.03;;;1.20;;
76443;SDS011;65282;51.362;10.082;2022-11-24T13:30:54;7.10;;;1.37;;
76443;SDS011;65282;51.362;10.082;2022-11-24T13:33:53;9.07;;;1.50;;
76443;SDS011;65282;51.362;10.082;2022-11-24T13:36:52;8.40;;;1.30;;
76443;SDS011;65282;51.362;10.082;2022-11-24T13:39:45;8.13;;;1.30;;
76443;SDS011;65282;51.362;10.082;2022-11-24T13:42:32;6.20;;;2.20;;
76443;SDS011;65282;51.362;10.082;2022-11-24T13:45:55;6.87;;;1.80;;
76443;SDS011;65282;51.362;10.082;2022-11-24T13:48:57;4.17;;;1.37;;
76443;SDS011;65282;51.362;10.082;2022-11-24T13:51:41;7.00;;;2.37;;
76443;SDS011;65282;51.362;10.082;2022-11-24T13:54:27;5.97;;;2.83;;
76443;SDS011;65282;51.362;10.082;2022-11-24T13:57:30;9.70;;;2.37;;
76443;SDS011;65282;51.362;10.082;2022-11-24T14:00:17;6.37;;;1.77;;
76443;SDS011;65282;51.362;10.082;2022-11-24T14:03:05;10.03;;;1.53;;
76443;SDS011;65282;51.362;10.082;2022-11-24T14:06:00;4.17;;;1.20;;
76443;SDS011;65282;51.362;10.082;2022-11-24T14:08:46;41.50;;;19.10;;
76443;SDS011;65282;51.362;10.082;2022-11-24T14:11:33;7.73;;;2.07;;
76443;SDS011;65282;51.362;10.082;2022-11-24T14:14:17;7.43;;;2.00;;
76443;SDS011;65282;51.362;10.082;2022-11-24T14:17:07;5.40;;;1.47;;
76443;SDS011;65282;51.362;10.082;2022-11-24T14:20:08;4.97;;;1.70;;
76443;SDS011;65282;51.362;10.082;2022-11-24T14:23:06;8.10;;;3.10;;
76443;SDS011;65282;51.362;10.082;2022-11-24T14:25:52;4.70;;;1.80;;
76443;SDS011;65282;51.362;10.082;2022-11-24T14:28:38;4.70;;;1.40;;
76443;SDS011;65282;51.362;10.082;2022-11-24T14:31:24;4.50;;;1.40;;
76443;SDS011;65282;51.362;10.082;2022-11-24T14:34:12;6.80;;;2.67;;
76443;SDS011;65282;51.362;10.082;2022-11-24T14:36:59;6.93;;;2.90;;
76443;SDS011;65282;51.362;10.082;2022-11-24T14:39:44;10.70;;;5.63;;
76443;SDS011;65282;51.362;10.082;2022-11-24T14:42:29;5.93;;;1.80;;
76443;SDS011;65282;51.362;10.082;2022-11-24T14:45:15;6.67;;;2.40;;
76443;SDS011;65282;51.362;10.082;2022-11-24T14:48:01;3.87;;;2.03;;
76443;SDS011;65282;51.362;10.082;2022-11-24T14:50:45;8.80;;;3.20;;
76443;SDS011;65282;51.362;10.082;2022-11-24T14:53:29;5.77;;;2.03;;
76443;SDS011;65282;51.362;10.082;2022-11-24T14:56:21;6.37;;;2.50;;
76443;SDS011;65282;51.362;10.082;2022-11-24T14:59:19;8.47;;;1.90;;
76443;SDS011;65282;51.362;10.082;2022-11-24T15:05:23;5.97;;;2.43;;
76443;SDS011;65282;51.362;10.082;2022-11-24T15:08:09;3.60;;;1.63;;
76443;SDS011;65282;51.362;10.082;2022-11-24T15:10:56;7.67;;;1.37;;
76443;SDS011;65282;51.362;10.082;2022-11-24T15:13:49;6.70;;;1.30;;
76443;SDS011;65282;51.362;10.082;2022-11-24T15:16:37;7.63;;;1.70;;
76443;SDS011;65282;51.362;10.082;2022-11-24T15:19:24;7.77;;;1.83;;
76443;SDS011;65282;51.362;10.082;2022-11-24T15:22:33;3.93;;;1.90;;
76443;SDS011;65282;51.362;10.082;2022-11-24T15:25:27;6.10;;;1.60;;
76443;SDS011;65282;51.362;10.082;2022-11-24T15:28:17;5.33;;;1.10;;
76443;SDS011;65282;51.362;10.082;2022-11-24T15:31:02;8.87;;;1.60;;
76443;SDS011;65282;51.362;10.082;2022-11-24T15:33:48;3.87;;;1.57;;
76443;SDS011;65282;51.362;10.082;2022-11-24T15:36:33;7.50;;;3.13;;
76443;SDS011;65282;51.362;10.082;2022-11-24T15:39:17;8.00;;;4.00;;
76443;SDS011;65282;51.362;10.082;2022-11-24T15:42:02;6.40;;;2.80;;
76443;SDS011;65282;51.362;10.082;2022-11-24T15:44:46;3.90;;;1.80;;
76443;SDS011;65282;51.362;10.082;2022-11-24T15:47:30;8.57;;;2.20;;
76443;SDS011;65282;51.362;10.082;2022-11-24T15:50:15;4.73;;;1.83;;
76443;SDS011;65282;51.362;10.082;2022-11-24T15:53:01;3.73;;;1.60;;
76443;SDS011;65282;51.362;10.082;2022-11-24T15:55:45;4.97;;;1.60;;
76443;SDS011;65282;51.362;10.082;2022-11-24T15:58:30;8.73;;;1.30;;
76443;SDS011;65282;51.362;10.082;2022-11-24T16:01:14;9.63;;;1.70;;
76443;SDS011;65282;51.362;10.082;2022-11-24T16:03:59;6.60;;;1.67;;
76443;SDS011;65282;51.362;10.082;2022-11-24T16:06:44;10.10;;;2.67;;
76443;SDS011;65282;51.362;10.082;2022-11-24T16:09:29;7.10;;;2.20;;
76443;SDS011;65282;51.362;10.082;2022-11-24T16:12:13;3.90;;;1.97;;
76443;SDS011;65282;51.362;10.082;2022-11-24T16:14:57;4.63;;;1.87;;
76443;SDS011;65282;51.362;10.082;2022-11-24T16:17:41;5.00;;;1.60;;
76443;SDS011;65282;51.362;10.082;2022-11-24T16:20:26;5.77;;;1.63;;
76443;SDS011;65282;51.362;10.082;2022-11-24T16:23:10;7.57;;;2.23;;
76443;SDS011;65282;51.362;10.082;2022-11-24T16:25:55;9.03;;;2.03;;
76443;SDS011;65282;51.362;10.082;2022-11-24T16:28:39;10.17;;;2.60;;
76443;SDS011;65282;51.362;10.082;2022-11-24T16:31:23;4.10;;;1.83;;
76443;SDS011;65282;51.362;10.082;2022-11-24T16:34:07;6.10;;;2.10;;
76443;SDS011;65282;51.362;10.082;2022-11-24T16:36:51;4.20;;;1.93;;
76443;SDS011;65282;51.362;10.082;2022-11-24T16:39:36;7.80;;;2.03;;
76443;SDS011;65282;51.362;10.082;2022-11-24T16:42:21;7.03;;;2.97;;
76443;SDS011;65282;51.362;10.082;2022-11-24T16:45:05;10.70;;;2.80;;
76443;SDS011;65282;51.362;10.082;2022-11-24T16:47:53;7.00;;;2.20;;